createdAt,value
2023-02-23T00:03:51.030Z,77.56
2023-02-23T00:07:43.470Z,77.76
2023-02-23T00:10:50.384Z,77.61
2023-02-23T00:13:53.948Z,77.67
2023-02-23T00:16:52.269Z,77.95
2023-02-23T00:19:51.208Z,77.80
2023-02-23T00:26:29.357Z,77.73
2023-02-23T00:29:46.991Z,77.13
2023-02-23T00:40:07.765Z,77.70
2023-02-23T00:43:14.351Z,77.76
2023-02-23T00:46:31.925Z,77.21
2023-02-23T00:53:16.333Z,77.22
2023-02-23T00:56:39.373Z,77.21
2023-02-23T00:59:42.475Z,77.20
2023-02-23T01:06:11.016Z,77.36
2023-02-23T01:09:19.351Z,77.17
2023-02-23T01:12:57.381Z,77.08
2023-02-23T01:16:09.358Z,77.47
2023-02-23T01:19:26.150Z,77.43
2023-02-23T01:22:54.666Z,77.50
2023-02-23T01:26:25.501Z,77.93
2023-02-23T01:36:35.953Z,77.45
2023-02-23T01:39:53.977Z,77.47
2023-02-23T01:43:05.067Z,77.66
2023-02-23T01:46:15.418Z,77.80
2023-02-23T01:49:24.565Z,77.98
2023-02-23T01:52:42.299Z,77.75
2023-02-23T01:55:40.332Z,77.33
2023-02-23T01:59:00.165Z,77.42
2023-02-23T02:02:02.192Z,77.68
2023-02-23T02:05:00.650Z,77.53
2023-02-23T02:07:51.780Z,76.82
2023-02-23T02:10:58.345Z,77.04
2023-02-23T02:13:40.884Z,76.91
2023-02-23T02:16:41.320Z,77.35
2023-02-23T02:20:13.314Z,77.33
2023-02-23T02:23:14.222Z,77.74
2023-02-23T02:26:29.393Z,76.69
2023-02-23T02:29:42.361Z,77.59
2023-02-23T02:32:56.031Z,77.04
2023-02-23T02:36:33.798Z,77.29
2023-02-23T02:39:42.330Z,77.20
2023-02-23T02:42:51.734Z,77.06
2023-02-23T02:45:58.613Z,77.55
2023-02-23T02:48:59.001Z,77.05
2023-02-23T02:52:01.669Z,77.44
2023-02-23T02:54:49.044Z,77.43
2023-02-23T02:57:42.058Z,77.30
2023-02-23T03:00:50.928Z,77.25
2023-02-23T03:04:09.281Z,77.30
2023-02-23T03:07:48.109Z,77.80
2023-02-23T03:11:11.210Z,78.03
2023-02-23T03:14:41.967Z,77.36
2023-02-23T03:18:14.675Z,77.84
2023-02-23T03:21:22.557Z,77.66
2023-02-23T03:24:42.586Z,77.79
2023-02-23T03:28:09.135Z,77.53
2023-02-23T03:31:51.188Z,77.68
2023-02-23T03:34:58.443Z,78.01
2023-02-23T03:38:17.036Z,77.93
2023-02-23T03:41:21.411Z,77.94
2023-02-23T03:44:32.305Z,78.29
2023-02-23T03:47:41.660Z,77.86
2023-02-23T03:51:02.139Z,78.00
2023-02-23T03:54:32.245Z,77.79
2023-02-23T03:57:31.094Z,78.15
2023-02-23T04:00:38.976Z,77.89
2023-02-23T04:03:44.616Z,77.93
2023-02-23T04:06:50.661Z,78.56
2023-02-23T04:09:52.953Z,78.30
2023-02-23T04:16:23.200Z,78.07
2023-02-23T04:19:10.102Z,78.43
2023-02-23T04:21:57.228Z,78.32
2023-02-23T04:24:41.835Z,78.42
2023-02-23T04:27:31.399Z,78.39
2023-02-23T04:30:25.386Z,78.03
2023-02-23T04:33:11.079Z,78.60
2023-02-23T04:35:57.548Z,78.60
2023-02-23T04:38:42.032Z,78.71
2023-02-23T04:41:24.700Z,78.14
2023-02-23T04:44:06.710Z,78.36
2023-02-23T04:46:46.968Z,78.38
2023-02-23T04:49:38.472Z,78.01
2023-02-23T04:52:35.622Z,78.34
2023-02-23T04:55:47.429Z,78.15
2023-02-23T05:01:49.662Z,78.44
2023-02-23T05:04:24.879Z,78.67
2023-02-23T05:07:16.627Z,78.63
2023-02-23T05:10:27.920Z,79.14
2023-02-23T05:14:03.017Z,78.43
2023-02-23T05:16:57.134Z,78.61
2023-02-23T05:20:10.242Z,79.60
2023-02-23T05:23:07.409Z,78.91
2023-02-23T05:25:41.253Z,79.15
2023-02-23T05:28:22.724Z,79.75
2023-02-23T05:31:08.492Z,79.63
2023-02-23T05:33:55.743Z,79.68
2023-02-23T05:36:58.742Z,79.79
2023-02-23T05:39:38.433Z,79.65
2023-02-23T05:42:16.289Z,79.33
2023-02-23T05:45:02.436Z,79.74
2023-02-23T05:48:05.564Z,79.70
2023-02-23T05:50:53.675Z,80.15
2023-02-23T05:53:41.690Z,80.36
2023-02-23T05:56:35.715Z,80.19
2023-02-23T05:59:09.741Z,80.29
2023-02-23T06:01:47.947Z,80.46
2023-02-23T06:08:29.271Z,80.63
2023-02-23T06:11:31.516Z,80.18
2023-02-23T06:14:18.820Z,80.58
2023-02-23T06:17:20.772Z,80.85
2023-02-23T06:20:25.647Z,81.00
2023-02-23T06:23:35.333Z,81.27
2023-02-23T06:26:54.280Z,80.89
2023-02-23T06:33:42.107Z,81.07
2023-02-23T06:36:23.857Z,81.33
2023-02-23T06:39:13.147Z,81.82
2023-02-23T06:41:54.278Z,81.93
2023-02-23T06:44:33.182Z,81.45
2023-02-23T06:47:06.542Z,81.33
2023-02-23T06:49:47.782Z,82.01
2023-02-23T06:52:28.019Z,81.39
2023-02-23T06:55:03.451Z,81.64
2023-02-23T06:57:45.714Z,81.58
2023-02-23T07:10:08.023Z,82.30
2023-02-23T07:12:35.325Z,81.83
2023-02-23T07:15:02.392Z,81.82
2023-02-23T07:17:29.560Z,82.04
2023-02-23T07:19:56.562Z,81.53
2023-02-23T07:22:25.165Z,81.68
2023-02-23T07:24:52.281Z,81.65
2023-02-23T07:27:19.510Z,81.61
2023-02-23T07:29:46.768Z,81.39
2023-02-23T07:32:13.924Z,81.41
2023-02-23T07:34:41.218Z,81.01
2023-02-23T07:37:08.326Z,80.94
2023-02-23T07:39:35.431Z,80.78
2023-02-23T07:42:02.623Z,80.69
2023-02-23T07:44:30.189Z,81.05
2023-02-23T07:46:57.893Z,80.80
2023-02-23T07:49:25.632Z,80.64
2023-02-23T07:51:52.740Z,80.79
2023-02-23T07:54:20.026Z,80.69
2023-02-23T07:56:47.207Z,80.36
2023-02-23T07:59:14.644Z,80.20
2023-02-23T08:01:41.719Z,80.59
2023-02-23T08:04:08.993Z,80.14
2023-02-23T08:06:36.673Z,80.39
2023-02-23T08:09:04.923Z,80.05
2023-02-23T08:11:32.334Z,79.71
2023-02-23T08:14:00.547Z,79.54
2023-02-23T08:16:29.609Z,79.20
2023-02-23T08:19:01.249Z,78.88
2023-02-23T08:21:29.877Z,78.65
2023-02-23T08:23:58.537Z,78.42
2023-02-23T08:26:26.309Z,78.32
2023-02-23T08:28:55.071Z,77.79
2023-02-23T08:31:24.664Z,77.01
2023-02-23T08:33:52.854Z,76.76
2023-02-23T08:36:21.087Z,76.85
2023-02-23T08:38:48.838Z,76.38
2023-02-23T08:41:17.171Z,75.97
2023-02-23T08:43:44.680Z,75.63
2023-02-23T08:46:11.913Z,75.15
2023-02-23T08:48:40.778Z,74.96
2023-02-23T08:51:09.367Z,74.63
2023-02-23T08:53:36.972Z,74.13
2023-02-23T08:56:07.564Z,74.46
2023-02-23T08:58:36.792Z,74.05
2023-02-23T09:01:04.349Z,73.93
2023-02-23T09:03:32.104Z,73.35
2023-02-23T09:06:06.498Z,72.94
2023-02-23T09:08:33.893Z,72.94
2023-02-23T09:11:01.098Z,72.74
2023-02-23T09:13:28.353Z,72.51
2023-02-23T09:15:55.592Z,72.42
2023-02-23T09:18:24.237Z,72.03
2023-02-23T09:20:51.731Z,72.67
2023-02-23T09:23:18.962Z,72.15
2023-02-23T09:25:46.613Z,72.64
2023-02-23T09:28:19.568Z,73.04
2023-02-23T09:30:47.628Z,72.67
2023-02-23T09:33:15.368Z,72.73
2023-02-23T09:35:42.555Z,72.43
2023-02-23T09:38:09.863Z,71.95
2023-02-23T09:40:45.873Z,71.88
2023-02-23T09:43:37.457Z,72.56
2023-02-23T09:46:16.368Z,72.94
2023-02-23T09:48:44.298Z,72.85
2023-02-23T09:51:19.128Z,72.51
2023-02-23T09:53:51.275Z,72.72
2023-02-23T09:56:33.316Z,73.00
2023-02-23T09:59:01.252Z,73.01
2023-02-23T10:01:49.307Z,71.96
2023-02-23T10:04:24.125Z,72.30
2023-02-23T10:07:06.393Z,72.30
2023-02-23T10:10:00.287Z,72.61
2023-02-23T10:12:45.160Z,72.33
2023-02-23T10:15:21.483Z,72.03
2023-02-23T10:18:09.774Z,71.52
2023-02-23T10:20:52.250Z,71.83
2023-02-23T10:23:26.448Z,72.11
2023-02-23T10:25:59.611Z,72.39
2023-02-23T10:28:31.296Z,72.02
2023-02-23T10:30:59.050Z,72.01
2023-02-23T10:33:41.947Z,72.10
2023-02-23T10:36:17.309Z,71.88
2023-02-23T10:38:45.298Z,72.07
2023-02-23T10:41:14.799Z,71.69
2023-02-23T10:43:42.566Z,71.54
2023-02-23T10:46:20.082Z,71.49
2023-02-23T10:48:49.395Z,71.30
2023-02-23T10:51:28.482Z,71.61
2023-02-23T10:53:55.787Z,71.58
2023-02-23T10:56:24.148Z,71.17
2023-02-23T10:58:57.041Z,70.84
2023-02-23T11:02:02.004Z,70.99
2023-02-23T11:04:32.891Z,70.57
2023-02-23T11:07:16.531Z,70.73
2023-02-23T11:09:47.542Z,70.54
2023-02-23T11:12:36.188Z,70.81
2023-02-23T11:15:35.209Z,70.62
2023-02-23T11:18:25.278Z,70.68
2023-02-23T11:20:53.034Z,70.66
2023-02-23T11:23:31.339Z,71.13
2023-02-23T11:26:04.608Z,70.98
2023-02-23T11:28:35.288Z,70.71
2023-02-23T11:31:19.875Z,71.04
2023-02-23T11:33:50.976Z,70.72
2023-02-23T11:36:28.098Z,70.36
2023-02-23T11:39:08.127Z,70.65
2023-02-23T11:41:37.628Z,70.49
2023-02-23T11:44:06.375Z,69.97
2023-02-23T11:46:38.148Z,70.55
2023-02-23T11:49:07.209Z,70.77
2023-02-23T11:51:38.631Z,70.77
2023-02-23T11:54:10.499Z,71.01
2023-02-23T11:56:37.734Z,70.66
2023-02-23T11:59:14.356Z,70.33
2023-02-23T12:01:46.956Z,69.78
2023-02-23T12:04:47.835Z,69.96
2023-02-23T12:07:41.665Z,69.82
2023-02-23T12:10:26.712Z,69.67
2023-02-23T12:13:04.675Z,69.75
2023-02-23T12:15:46.365Z,69.63
2023-02-23T12:18:29.339Z,69.53
2023-02-23T12:21:01.312Z,69.69
2023-02-23T12:23:33.700Z,70.08
2023-02-23T12:26:10.680Z,69.75
2023-02-23T12:28:45.873Z,69.67
2023-02-23T12:31:24.692Z,69.75
2023-02-23T12:34:36.180Z,70.33
2023-02-23T12:37:37.279Z,70.24
2023-02-23T12:40:30.412Z,70.31
2023-02-23T12:43:20.036Z,70.08
2023-02-23T12:45:56.731Z,69.96
2023-02-23T12:49:17.225Z,70.34
2023-02-23T12:51:52.137Z,70.43
2023-02-23T12:54:19.389Z,70.20
2023-02-23T12:56:58.047Z,70.77
2023-02-23T12:59:48.276Z,70.59
2023-02-23T13:02:23.128Z,70.51
2023-02-23T13:04:58.489Z,70.68
2023-02-23T13:07:49.620Z,70.54
2023-02-23T13:10:29.485Z,70.57
2023-02-23T13:13:04.956Z,71.02
2023-02-23T13:15:52.348Z,70.77
2023-02-23T13:18:31.632Z,71.17
2023-02-23T13:21:05.632Z,71.35
2023-02-23T13:23:39.901Z,71.25
2023-02-23T13:26:39.345Z,71.27
2023-02-23T13:29:29.431Z,71.57
2023-02-23T13:31:56.818Z,71.60
2023-02-23T13:34:30.311Z,72.10
2023-02-23T13:37:00.630Z,72.00
2023-02-23T13:39:33.773Z,72.14
2023-02-23T13:42:22.720Z,71.96
2023-02-23T13:45:23.295Z,71.90
2023-02-23T13:47:54.471Z,72.08
2023-02-23T13:50:47.322Z,72.06
2023-02-23T13:53:41.205Z,72.04
2023-02-23T13:56:23.721Z,72.19
2023-02-23T13:59:10.457Z,71.90
2023-02-23T14:01:45.396Z,72.20
2023-02-23T14:04:22.111Z,72.21
2023-02-23T14:07:23.469Z,72.08
2023-02-23T14:10:07.332Z,72.57
2023-02-23T14:12:38.897Z,72.83
2023-02-23T14:15:28.450Z,73.18
2023-02-23T14:18:18.819Z,73.17
2023-02-23T14:21:18.559Z,73.38
2023-02-23T14:24:04.226Z,73.59
2023-02-23T14:26:31.327Z,74.16
2023-02-23T14:29:17.452Z,74.57
2023-02-23T14:32:06.336Z,74.26
2023-02-23T14:34:52.775Z,74.13
2023-02-23T14:37:36.189Z,74.09
2023-02-23T14:40:39.855Z,73.99
2023-02-23T14:43:39.436Z,74.02
2023-02-23T14:46:27.537Z,74.44
2023-02-23T14:49:15.871Z,74.54
2023-02-23T14:51:48.700Z,74.73
2023-02-23T14:54:21.494Z,75.19
2023-02-23T14:56:51.664Z,75.53
2023-02-23T14:59:24.394Z,75.45
2023-02-23T15:01:53.084Z,75.78
2023-02-23T15:04:30.166Z,75.93
2023-02-23T15:07:01.040Z,76.31
2023-02-23T15:09:34.009Z,76.48
2023-02-23T15:12:11.687Z,76.42
2023-02-23T15:14:39.353Z,76.98
2023-02-23T15:17:07.189Z,77.10
2023-02-23T15:19:36.750Z,77.18
2023-02-23T15:22:05.950Z,77.47
2023-02-23T15:24:42.307Z,78.16
2023-02-23T15:27:27.336Z,78.32
2023-02-23T15:29:55.859Z,78.36
2023-02-23T15:32:26.243Z,78.71
2023-02-23T15:34:56.289Z,79.02
2023-02-23T15:37:37.664Z,79.29
2023-02-23T15:40:11.557Z,79.49
2023-02-23T15:42:43.832Z,79.48
2023-02-23T15:45:28.840Z,79.82
2023-02-23T15:47:59.607Z,79.97
2023-02-23T15:50:37.243Z,80.11
2023-02-23T15:53:24.186Z,80.60
2023-02-23T15:56:03.173Z,80.60
2023-02-23T15:58:33.288Z,80.75
2023-02-23T16:01:08.183Z,80.94
2023-02-23T16:03:38.560Z,80.76
2023-02-23T16:06:09.176Z,81.21
2023-02-23T16:08:37.106Z,81.44
2023-02-23T16:11:16.182Z,81.53
2023-02-23T16:13:45.213Z,81.33
2023-02-23T16:16:20.622Z,81.75
2023-02-23T16:18:53.809Z,82.16
2023-02-23T16:21:25.330Z,82.04
2023-02-23T16:23:56.113Z,82.62
2023-02-23T16:26:25.874Z,82.63
2023-02-23T16:29:01.485Z,83.03
2023-02-23T16:31:47.849Z,83.18
2023-02-23T16:34:35.790Z,83.28
2023-02-23T16:37:48.956Z,83.59
2023-02-23T16:40:16.213Z,83.70
2023-02-23T16:42:43.677Z,83.70
2023-02-23T16:45:16.414Z,84.03
2023-02-23T16:47:49.809Z,84.31
2023-02-23T16:50:21.117Z,84.35
2023-02-23T16:52:53.836Z,84.21
2023-02-23T16:55:26.425Z,84.47
2023-02-23T16:57:59.456Z,84.57
2023-02-23T17:00:29.534Z,84.78
2023-02-23T17:02:57.923Z,84.52
2023-02-23T17:05:25.189Z,84.93
2023-02-23T17:07:53.120Z,84.85
2023-02-23T17:10:26.284Z,85.14
2023-02-23T17:13:05.514Z,85.25
2023-02-23T17:15:41.528Z,85.24
2023-02-23T17:18:08.656Z,84.79
2023-02-23T17:20:35.818Z,84.94
2023-02-23T17:23:03.253Z,85.44
2023-02-23T17:25:30.995Z,85.43
2023-02-23T17:27:58.836Z,85.69
2023-02-23T17:30:26.912Z,86.24
2023-02-23T17:32:56.374Z,86.46
2023-02-23T17:35:24.114Z,86.24
2023-02-23T17:37:51.742Z,86.64
2023-02-23T17:40:33.068Z,86.92
2023-02-23T17:43:01.772Z,87.03
2023-02-23T17:45:29.550Z,87.17
2023-02-23T17:47:57.904Z,87.32
2023-02-23T17:50:27.212Z,87.74
2023-02-23T17:52:54.739Z,87.68
2023-02-23T17:55:23.809Z,88.00
2023-02-23T17:57:50.901Z,88.31
2023-02-23T18:00:19.554Z,88.40
2023-02-23T18:02:46.803Z,88.85
2023-02-23T18:05:15.709Z,89.44
2023-02-23T18:07:43.416Z,89.69
2023-02-23T18:10:11.792Z,90.21
2023-02-23T18:12:39.512Z,90.66
2023-02-23T18:15:07.551Z,91.18
2023-02-23T18:17:37.319Z,91.18
2023-02-23T18:20:06.637Z,91.59
2023-02-23T18:22:34.141Z,91.75
2023-02-23T18:25:01.357Z,91.91
2023-02-23T18:27:28.521Z,92.22
2023-02-23T18:29:55.619Z,92.34
2023-02-23T18:32:23.029Z,92.93
2023-02-23T18:34:51.296Z,92.92
2023-02-23T18:37:25.438Z,93.09
2023-02-23T18:39:54.454Z,93.15
2023-02-23T18:42:21.837Z,93.40
2023-02-23T18:44:49.012Z,93.05
2023-02-23T18:47:16.230Z,93.01
2023-02-23T18:49:43.302Z,93.28
2023-02-23T18:52:11.069Z,93.31
2023-02-23T18:54:40.453Z,93.20
2023-02-23T18:57:07.639Z,93.67
2023-02-23T18:59:34.971Z,93.58
2023-02-23T19:02:02.102Z,93.38
2023-02-23T19:04:29.207Z,93.64
2023-02-23T19:06:56.401Z,93.77
2023-02-23T19:09:23.662Z,94.00
2023-02-23T19:11:51.413Z,94.02
2023-02-23T19:14:21.989Z,93.59
2023-02-23T19:16:51.075Z,93.89
2023-02-23T19:19:18.614Z,93.93
2023-02-23T19:21:45.777Z,94.00
2023-02-23T19:24:12.923Z,94.08
2023-02-23T19:26:40.908Z,94.17
2023-02-23T19:29:08.298Z,94.05
2023-02-23T19:31:37.012Z,93.92
2023-02-23T19:34:05.214Z,93.87
2023-02-23T19:36:34.051Z,93.79
2023-02-23T19:39:10.694Z,93.51
2023-02-23T19:41:40.113Z,93.88
2023-02-23T19:44:07.507Z,94.00
2023-02-23T19:46:35.347Z,94.04
2023-02-23T19:49:04.235Z,93.99
2023-02-23T19:51:32.136Z,94.21
2023-02-23T19:53:59.644Z,94.48
2023-02-23T19:56:30.730Z,94.96
2023-02-23T19:58:59.713Z,95.04
2023-02-23T20:01:27.871Z,95.61
2023-02-23T20:03:57.020Z,95.92
2023-02-23T20:06:27.252Z,96.40
2023-02-23T20:08:55.272Z,97.36
2023-02-23T20:11:23.705Z,97.01
2023-02-23T20:13:53.139Z,97.32
2023-02-23T20:16:20.881Z,98.20
2023-02-23T20:18:48.153Z,99.30
2023-02-23T20:21:23.417Z,99.00
2023-02-23T20:23:51.365Z,100.00
2023-02-23T20:26:22.681Z,100.00
2023-02-23T20:28:52.967Z,100.00
2023-02-23T20:31:22.310Z,100.00
2023-02-23T20:33:52.503Z,100.00
2023-02-23T20:36:21.834Z,100.00
2023-02-23T20:38:48.987Z,100.00
2023-02-23T20:41:17.571Z,100.00
2023-02-23T20:43:45.935Z,100.00
2023-02-23T20:46:15.097Z,100.00
2023-02-23T20:48:42.562Z,100.00
2023-02-23T20:51:13.880Z,100.00
2023-02-23T20:53:42.136Z,100.00
2023-02-23T20:56:10.276Z,100.00
2023-02-23T20:58:37.402Z,100.00
2023-02-23T21:01:10.900Z,100.00
2023-02-23T21:03:38.139Z,100.00
2023-02-23T21:06:05.510Z,100.00
2023-02-23T21:08:32.677Z,100.00
2023-02-23T21:11:05.771Z,100.00
2023-02-23T21:13:33.399Z,100.00
2023-02-23T21:16:01.588Z,100.00
2023-02-23T21:18:30.121Z,100.00
2023-02-23T21:20:57.608Z,100.00
2023-02-23T21:23:25.780Z,100.00
2023-02-23T21:25:54.236Z,100.00
2023-02-23T21:28:21.458Z,100.00
2023-02-23T21:30:48.669Z,100.00
2023-02-23T21:33:15.880Z,100.00
2023-02-23T21:35:42.971Z,100.00
2023-02-23T21:38:10.962Z,100.00
2023-02-23T21:40:42.460Z,100.00
2023-02-23T21:43:09.694Z,100.00
2023-02-23T21:45:39.723Z,100.00
2023-02-23T21:48:06.881Z,100.00
2023-02-23T21:50:34.052Z,100.00
2023-02-23T21:53:01.328Z,100.00
2023-02-23T21:55:28.394Z,100.00
2023-02-23T21:57:56.620Z,100.00
2023-02-23T22:00:24.389Z,100.00
2023-02-23T22:02:51.813Z,100.00
2023-02-23T22:05:20.013Z,100.00
2023-02-23T22:07:55.457Z,100.00
2023-02-23T22:10:24.447Z,100.00
2023-02-23T22:12:56.282Z,100.00
2023-02-23T22:15:29.479Z,100.00
2023-02-23T22:17:56.905Z,100.00
2023-02-23T22:20:24.136Z,100.00
2023-02-23T22:22:51.478Z,100.00
2023-02-23T22:25:20.554Z,100.00
2023-02-23T22:27:48.009Z,100.00
2023-02-23T22:30:15.925Z,100.00
2023-02-23T22:32:43.321Z,100.00
2023-02-23T22:35:11.425Z,100.00
2023-02-23T22:37:39.330Z,100.00
2023-02-23T22:40:17.135Z,100.00
2023-02-23T22:42:48.600Z,100.00
2023-02-23T22:45:16.495Z,100.00
2023-02-23T22:47:43.730Z,100.00
2023-02-23T22:50:15.652Z,100.00
2023-02-23T22:52:43.319Z,100.00
2023-02-23T22:55:11.342Z,100.00
2023-02-23T22:57:40.020Z,100.00
2023-02-23T23:00:10.692Z,100.00
2023-02-23T23:02:38.080Z,100.00
2023-02-23T23:05:05.959Z,100.00
2023-02-23T23:07:34.747Z,100.00
2023-02-23T23:10:05.959Z,100.00
2023-02-23T23:12:34.739Z,100.00
2023-02-23T23:15:03.686Z,100.00
2023-02-23T23:17:32.016Z,100.00
2023-02-23T23:20:11.118Z,100.00
2023-02-23T23:22:38.848Z,100.00
2023-02-23T23:25:15.013Z,100.00
2023-02-23T23:27:44.806Z,100.00
2023-02-23T23:30:12.678Z,100.00
2023-02-23T23:32:41.028Z,100.00
2023-02-23T23:35:11.294Z,100.00
2023-02-23T23:37:40.081Z,100.00
2023-02-23T23:40:14.635Z,100.00
2023-02-23T23:42:46.798Z,100.00
2023-02-23T23:45:16.489Z,100.00
2023-02-23T23:47:47.119Z,100.00
2023-02-23T23:50:16.490Z,100.00
2023-02-23T23:52:45.198Z,100.00
2023-02-23T23:55:14.882Z,100.00
2023-02-23T23:57:42.503Z,100.00
